Time;durP1;ratioP1;P1;durP2;ratioP2;P2;SDS_P1;SDS_P2;PMS_P1;PMS_P2;Temp;Humidity;BMP_temperature;BMP_pressure;BME280_temperature;BME280_humidity;BME280_pressure;Samples;Min_cycle;Max_cycle;Signal;HPM_P1;HPM_P2
2022/04/14 00:01:38;;;;;;;6.37;5.07;;;15.60;98.00;;;;;;5972821;24;20854;-75
2022/04/14 00:04:05;;;;;;;5.83;5.23;;;15.50;98.10;;;;;;5974436;24;20532;-75
2022/04/14 00:06:33;;;;;;;5.23;4.73;;;15.50;98.50;;;;;;5972229;24;20470;-76
2022/04/14 00:09:00;;;;;;;6.40;5.20;;;15.50;98.60;;;;;;5973808;24;20446;-76
2022/04/14 00:11:27;;;;;;;6.00;4.87;;;15.50;98.80;;;;;;5978817;24;20453;-75
2022/04/14 00:13:54;;;;;;;6.23;4.77;;;15.50;98.90;;;;;;5973849;24;20565;-76
2022/04/14 00:16:21;;;;;;;6.70;4.10;;;15.50;99.10;;;;;;5961254;24;20573;-76
2022/04/14 00:18:48;;;;;;;5.93;4.90;;;15.40;99.30;;;;;;5973044;24;20464;-76
2022/04/14 00:21:16;;;;;;;5.37;4.80;;;15.40;99.70;;;;;;5973871;24;21012;-76
2022/04/14 00:23:44;;;;;;;6.37;3.93;;;15.40;99.70;;;;;;5974641;24;20454;-76
2022/04/14 00:26:11;;;;;;;7.10;4.50;;;15.30;99.90;;;;;;5972561;24;20565;-76
2022/04/14 00:28:38;;;;;;;5.47;4.70;;;15.40;99.90;;;;;;5976049;24;20445;-76
2022/04/14 00:31:05;;;;;;;7.77;4.90;;;15.30;99.90;;;;;;5975184;24;20442;-76
2022/04/14 00:33:33;;;;;;;5.73;5.03;;;15.20;99.90;;;;;;5976199;24;20476;-75
2022/04/14 00:36:00;;;;;;;8.03;6.00;;;15.20;99.90;;;;;;5974909;23;20468;-75
2022/04/14 00:38:27;;;;;;;9.00;4.77;;;15.20;99.90;;;;;;5973813;24;20454;-76
2022/04/14 00:40:55;;;;;;;8.47;4.37;;;15.10;99.90;;;;;;5973977;24;20952;-76
2022/04/14 00:43:30;;;;;;;5.97;4.47;;;15.00;99.90;;;;;;5974818;24;21027;-75
2022/04/14 00:45:57;;;;;;;6.27;4.27;;;14.90;99.90;;;;;;5974907;24;20549;-76
2022/04/14 00:48:24;;;;;;;4.93;4.00;;;14.90;99.90;;;;;;5976111;24;20457;-76
2022/04/14 00:50:51;;;;;;;9.33;5.67;;;14.90;99.90;;;;;;5974418;24;20446;-76
2022/04/14 00:53:18;;;;;;;6.10;5.50;;;14.90;99.90;;;;;;5975251;24;20558;-76
2022/04/14 00:55:45;;;;;;;6.80;6.20;;;14.80;99.90;;;;;;5972661;24;20467;-76
2022/04/14 00:58:14;;;;;;;8.03;6.20;;;14.60;99.90;;;;;;5974153;24;20530;-76
2022/04/14 01:00:42;;;;;;;7.30;6.60;;;14.50;99.90;;;;;;5976448;24;20440;-75
2022/04/14 01:03:10;;;;;;;6.27;5.50;;;14.30;99.90;;;;;;5973820;24;20443;-76
2022/04/14 01:05:37;;;;;;;9.10;6.40;;;14.20;99.90;;;;;;5974773;24;20480;-76
2022/04/14 01:08:06;;;;;;;7.50;6.47;;;14.10;99.90;;;;;;5972689;24;20451;-76
2022/04/14 01:10:34;;;;;;;7.93;7.00;;;14.00;99.90;;;;;;5973336;24;20806;-75
2022/04/14 01:13:02;;;;;;;9.20;7.20;;;13.90;99.90;;;;;;5971595;24;20501;-76
2022/04/14 01:15:30;;;;;;;7.90;6.67;;;13.80;99.90;;;;;;5966100;24;20590;-76
2022/04/14 01:17:57;;;;;;;6.73;6.03;;;13.70;99.90;;;;;;5973529;24;20443;-76
2022/04/14 01:20:24;;;;;;;8.53;6.97;;;13.60;99.90;;;;;;5973355;24;20864;-76
2022/04/14 01:22:57;;;;;;;6.57;5.97;;;13.60;99.90;;;;;;5973402;24;20447;-76
2022/04/14 01:25:26;;;;;;;8.87;5.53;;;13.60;99.90;;;;;;5973727;24;20800;-76
2022/04/14 01:27:53;;;;;;;7.83;5.93;;;13.60;99.90;;;;;;5973156;24;20529;-76
2022/04/14 01:30:21;;;;;;;6.57;5.67;;;13.60;99.90;;;;;;5972647;24;20561;-76
2022/04/14 01:32:48;;;;;;;7.40;5.00;;;13.60;99.90;;;;;;5956985;24;20474;-75
2022/04/14 01:35:15;;;;;;;5.50;5.00;;;13.60;99.90;;;;;;5973832;24;20489;-76
2022/04/14 01:37:42;;;;;;;7.35;5.22;;;13.60;99.90;;;;;;5973179;24;20450;-76
2022/04/14 01:40:10;;;;;;;5.53;5.03;;;13.70;99.90;;;;;;5974228;24;20204;-76
2022/04/14 01:42:38;;;;;;;6.90;4.60;;;13.60;99.90;;;;;;5974978;24;20451;-76
2022/04/14 01:45:06;;;;;;;7.07;4.70;;;13.60;99.90;;;;;;5974780;24;20993;-76
2022/04/14 01:47:38;;;;;;;6.60;4.33;;;13.70;99.90;;;;;;5975265;24;20450;-76
2022/04/14 01:50:07;;;;;;;5.97;4.80;;;13.70;99.90;;;;;;5974106;24;20449;-76
2022/04/14 01:52:34;;;;;;;8.00;4.80;;;13.70;99.90;;;;;;5974342;24;20544;-76
2022/04/14 01:55:01;;;;;;;6.20;5.10;;;13.70;99.90;;;;;;5975970;24;20475;-76
2022/04/14 01:57:28;;;;;;;5.43;4.93;;;13.70;99.90;;;;;;5974584;24;20456;-76
2022/04/14 01:59:57;;;;;;;7.67;5.50;;;13.70;99.90;;;;;;5975751;24;20526;-76
2022/04/14 02:02:24;;;;;;;6.87;5.40;;;13.50;99.90;;;;;;5976079;24;20517;-76
2022/04/14 02:04:51;;;;;;;7.50;5.17;;;13.60;99.90;;;;;;5976111;24;20509;-76
2022/04/14 02:07:18;;;;;;;6.63;4.93;;;13.60;99.90;;;;;;5973831;24;20948;-76
2022/04/14 02:09:45;;;;;;;6.73;5.17;;;13.60;99.90;;;;;;5972954;24;20202;-76
2022/04/14 02:12:12;;;;;;;7.00;5.63;;;13.60;99.90;;;;;;5976852;24;20490;-76
2022/04/14 02:14:40;;;;;;;7.77;5.97;;;13.60;99.90;;;;;;5975297;24;20555;-76
2022/04/14 02:17:08;;;;;;;11.97;6.00;;;13.60;99.90;;;;;;5973775;24;20529;-76
2022/04/14 02:19:35;;;;;;;7.87;5.50;;;13.70;99.90;;;;;;5975286;24;20533;-76
2022/04/14 02:22:02;;;;;;;7.30;6.03;;;13.70;99.90;;;;;;5975329;24;20448;-76
2022/04/14 02:24:29;;;;;;;8.70;6.13;;;13.70;99.90;;;;;;5972358;24;20477;-76
2022/04/14 02:26:56;;;;;;;6.50;5.90;;;13.70;99.90;;;;;;5971622;24;20196;-76
2022/04/14 02:29:23;;;;;;;7.37;6.27;;;13.70;99.90;;;;;;5975405;24;20977;-76
2022/04/14 02:31:51;;;;;;;8.57;6.57;;;13.70;99.90;;;;;;5973824;24;20451;-76
2022/04/14 02:34:20;;;;;;;7.30;5.90;;;13.70;99.90;;;;;;5969226;24;20563;-76
2022/04/14 02:36:47;;;;;;;8.40;6.70;;;13.80;99.90;;;;;;5974232;24;20482;-76
2022/04/14 02:39:14;;;;;;;7.87;7.07;;;13.80;99.90;;;;;;5971717;24;20479;-76
2022/04/14 02:41:41;;;;;;;8.97;6.80;;;13.70;99.90;;;;;;5967273;24;20471;-76
2022/04/14 02:44:08;;;;;;;6.95;6.20;;;13.60;99.90;;;;;;5974164;24;20543;-76
2022/04/14 02:46:35;;;;;;;7.03;6.32;;;13.60;99.90;;;;;;5975841;24;20721;-77
2022/04/14 02:49:02;;;;;;;7.80;6.70;;;13.40;99.90;;;;;;5974736;24;20609;-76
2022/04/14 02:51:30;;;;;;;8.07;7.22;;;13.30;99.90;;;;;;5970224;24;20648;-76
2022/04/14 02:53:57;;;;;;;10.18;6.60;;;13.30;99.90;;;;;;5976677;24;20301;-76
2022/04/14 02:56:24;;;;;;;9.52;6.85;;;13.30;99.90;;;;;;5974937;24;20218;-76
2022/04/14 02:58:51;;;;;;;8.73;7.93;;;13.30;99.90;;;;;;5974860;24;20236;-76
2022/04/14 03:01:18;;;;;;;11.23;8.80;;;13.20;99.90;;;;;;5976047;24;20529;-76
2022/04/14 03:03:45;;;;;;;8.80;7.88;;;13.20;99.90;;;;;;5974832;24;20525;-76
2022/04/14 03:06:12;;;;;;;9.32;7.90;;;13.20;99.90;;;;;;5973194;23;20214;-76
2022/04/14 03:08:41;;;;;;;10.63;8.20;;;13.10;99.90;;;;;;5974094;24;20313;-76
2022/04/14 03:11:08;;;;;;;11.32;8.50;;;13.10;99.90;;;;;;5975146;24;20222;-76
2022/04/14 03:13:35;;;;;;;10.45;8.30;;;13.10;99.90;;;;;;5975935;24;20246;-76
2022/04/14 03:16:02;;;;;;;9.98;8.98;;;13.10;99.90;;;;;;5975604;24;20298;-76
2022/04/14 03:18:29;;;;;;;10.73;9.45;;;13.10;99.90;;;;;;5974814;24;20754;-76
2022/04/14 03:20:56;;;;;;;12.70;9.80;;;13.10;99.90;;;;;;5969928;24;20199;-76
2022/04/14 03:23:24;;;;;;;11.73;10.57;;;13.00;99.90;;;;;;5975102;24;20201;-76
2022/04/14 03:25:53;;;;;;;14.40;11.05;;;13.00;99.90;;;;;;5972847;24;20222;-75
2022/04/14 03:28:19;;;;;;;12.65;10.50;;;12.90;99.90;;;;;;5974940;24;20647;-75
2022/04/14 03:30:46;;;;;;;13.23;11.60;;;12.90;99.90;;;;;;5976122;24;20274;-76
2022/04/14 03:33:13;;;;;;;13.57;12.15;;;12.90;99.90;;;;;;5972008;23;20250;-75
2022/04/14 03:35:40;;;;;;;13.85;12.60;;;12.90;99.90;;;;;;5975088;24;20682;-76
2022/04/14 03:38:07;;;;;;;18.02;13.80;;;12.90;99.90;;;;;;5975000;24;20269;-75
2022/04/14 03:40:34;;;;;;;18.50;13.93;;;12.90;99.90;;;;;;5974250;23;20202;-76
2022/04/14 03:43:02;;;;;;;16.02;14.40;;;12.90;99.90;;;;;;5973960;24;20220;-75
2022/04/14 03:45:30;;;;;;;19.73;16.30;;;12.90;99.90;;;;;;5975989;24;20353;-75
2022/04/14 03:47:57;;;;;;;21.60;16.83;;;12.90;99.90;;;;;;5973712;24;20194;-76
2022/04/14 03:50:23;;;;;;;19.98;17.52;;;12.90;99.90;;;;;;5975797;23;20646;-75
2022/04/14 03:52:51;;;;;;;18.88;16.98;;;12.90;99.90;;;;;;5974396;24;20218;-75
2022/04/14 03:55:18;;;;;;;21.90;18.63;;;12.90;99.90;;;;;;5973867;23;20219;-76
2022/04/14 03:57:44;;;;;;;20.73;18.65;;;12.90;99.90;;;;;;5975294;24;20191;-75
2022/04/14 04:00:14;;;;;;;21.55;19.42;;;12.90;99.90;;;;;;5974931;24;20603;-76
2022/04/14 04:02:41;;;;;;;22.10;19.73;;;12.90;99.90;;;;;;5972944;24;20662;-75
2022/04/14 04:05:09;;;;;;;21.33;19.10;;;12.90;99.90;;;;;;5974421;24;20466;-76
2022/04/14 04:07:36;;;;;;;21.65;19.70;;;12.90;99.90;;;;;;5970485;24;20459;-76
2022/04/14 04:10:04;;;;;;;22.52;20.20;;;12.90;99.90;;;;;;5973904;24;20196;-76
2022/04/14 04:12:31;;;;;;;23.40;21.20;;;12.90;99.90;;;;;;5973496;24;20198;-75
2022/04/14 04:14:58;;;;;;;23.40;21.17;;;12.90;99.90;;;;;;5975552;24;20211;-75
2022/04/14 04:17:26;;;;;;;24.38;21.95;;;12.80;99.90;;;;;;5973063;24;20278;-76
2022/04/14 04:19:55;;;;;;;24.20;21.67;;;12.80;99.90;;;;;;5972585;24;20230;-75
2022/04/14 04:22:22;;;;;;;25.50;22.60;;;12.80;99.90;;;;;;5975698;24;20701;-76
2022/04/14 04:24:49;;;;;;;25.52;22.70;;;12.80;99.90;;;;;;5974149;24;20309;-76
2022/04/14 04:27:15;;;;;;;26.52;23.90;;;12.80;99.90;;;;;;5974134;24;20199;-75
2022/04/14 04:29:43;;;;;;;25.20;22.85;;;12.80;99.90;;;;;;5975493;24;20277;-76
2022/04/14 04:32:10;;;;;;;28.10;25.05;;;12.80;99.90;;;;;;5972611;24;20191;-76
2022/04/14 04:34:38;;;;;;;26.20;23.50;;;12.80;99.90;;;;;;5974114;24;20237;-75
2022/04/14 04:37:05;;;;;;;27.52;25.00;;;12.80;99.90;;;;;;5971746;24;20266;-75
2022/04/14 04:39:32;;;;;;;24.90;22.50;;;12.80;99.90;;;;;;5972840;23;20230;-76
2022/04/14 04:41:59;;;;;;;27.10;23.77;;;12.80;99.90;;;;;;5970818;24;20941;-76
2022/04/14 04:44:26;;;;;;;27.73;24.70;;;12.80;99.90;;;;;;5973666;24;20586;-76
2022/04/14 04:46:53;;;;;;;30.23;24.90;;;12.90;99.90;;;;;;5970177;24;20238;-76
2022/04/14 04:49:20;;;;;;;29.45;26.63;;;12.90;99.90;;;;;;5970591;24;20875;-76
2022/04/14 04:51:49;;;;;;;31.40;28.10;;;12.80;99.90;;;;;;5971827;24;20194;-76
2022/04/14 04:54:16;;;;;;;30.27;27.23;;;12.70;99.90;;;;;;5972395;24;20482;-77
2022/04/14 04:56:42;;;;;;;28.27;25.38;;;12.70;99.90;;;;;;5973011;24;20274;-76
2022/04/14 04:59:09;;;;;;;28.35;25.38;;;12.60;99.90;;;;;;5974464;24;20535;-76
2022/04/14 05:01:36;;;;;;;29.35;25.13;;;12.60;99.90;;;;;;5974047;24;20191;-76
2022/04/14 05:04:03;;;;;;;31.55;28.55;;;12.60;99.90;;;;;;5967761;24;20245;-76
2022/04/14 05:06:30;;;;;;;32.88;28.42;;;12.70;99.90;;;;;;5975660;24;20230;-76
2022/04/14 05:08:58;;;;;;;31.07;27.43;;;12.80;99.90;;;;;;5972362;23;20191;-76
2022/04/14 05:11:25;;;;;;;34.53;30.40;;;12.80;99.90;;;;;;5974144;24;20945;-77
2022/04/14 05:13:52;;;;;;;31.17;28.25;;;12.80;99.90;;;;;;5958434;23;20459;-75
2022/04/14 05:16:19;;;;;;;32.15;28.85;;;12.90;99.90;;;;;;5965109;24;20187;-76
2022/04/14 05:18:46;;;;;;;33.58;30.08;;;12.90;99.90;;;;;;5969583;23;20195;-76
2022/04/14 05:21:13;;;;;;;32.53;29.33;;;12.90;99.90;;;;;;5965661;24;20684;-77
2022/04/14 05:23:42;;;;;;;34.35;31.05;;;13.00;99.90;;;;;;5974055;24;20195;-77
2022/04/14 05:26:10;;;;;;;31.55;28.23;;;13.10;99.90;;;;;;5974112;23;20306;-77
2022/04/14 05:28:38;;;;;;;31.35;28.33;;;13.20;99.90;;;;;;5971794;23;20194;-79
2022/04/14 05:31:06;;;;;;;31.75;28.85;;;13.30;99.90;;;;;;5972965;23;20222;-78
2022/04/14 05:33:33;;;;;;;31.37;28.27;;;13.30;99.90;;;;;;5961678;24;20270;-79
2022/04/14 05:36:00;;;;;;;33.80;30.10;;;13.40;99.90;;;;;;5973644;23;20495;-78
2022/04/14 05:38:27;;;;;;;33.90;30.50;;;13.40;99.90;;;;;;5975268;23;20439;-78
2022/04/14 05:40:57;;;;;;;32.10;29.10;;;13.50;99.90;;;;;;5972232;24;20450;-81
2022/04/14 05:43:27;;;;;;;31.87;28.80;;;13.50;99.90;;;;;;5970039;23;20450;-79
2022/04/14 05:45:55;;;;;;;31.43;28.30;;;13.60;99.90;;;;;;5970625;23;20537;-79
2022/04/14 05:48:26;;;;;;;31.10;28.00;;;13.70;99.90;;;;;;5967824;23;21079;-79
2022/04/14 05:50:53;;;;;;;32.47;29.23;;;13.80;99.90;;;;;;5978745;23;20577;-80
2022/04/14 05:53:26;;;;;;;32.78;29.60;;;13.80;99.90;;;;;;5972754;24;20518;-79
2022/04/14 05:55:53;;;;;;;32.60;29.30;;;13.80;99.90;;;;;;5959596;24;20214;-78
2022/04/14 05:58:20;;;;;;;30.90;28.10;;;13.90;99.90;;;;;;5969833;23;20479;-77
2022/04/14 06:00:49;;;;;;;30.97;28.10;;;13.90;99.90;;;;;;5976247;24;20435;-77
2022/04/14 06:03:16;;;;;;;29.70;26.70;;;14.00;99.90;;;;;;5971213;23;22287;-77
2022/04/14 06:05:43;;;;;;;30.90;27.53;;;14.00;99.90;;;;;;5968610;23;20466;-78
2022/04/14 06:08:10;;;;;;;30.37;27.57;;;14.00;99.90;;;;;;5973193;23;20483;-75
2022/04/14 06:10:38;;;;;;;30.17;27.30;;;14.10;99.90;;;;;;5974096;24;20471;-76
2022/04/14 06:13:08;;;;;;;30.00;27.10;;;14.20;99.90;;;;;;5974583;23;20464;-76
2022/04/14 06:15:35;;;;;;;30.87;27.77;;;14.20;99.90;;;;;;5970630;23;20817;-76
2022/04/14 06:18:03;;;;;;;29.57;26.37;;;14.20;99.90;;;;;;5968166;23;20444;-78
2022/04/14 06:20:31;;;;;;;28.80;25.90;;;14.20;99.90;;;;;;5972833;23;20442;-75
2022/04/14 06:22:58;;;;;;;30.10;27.20;;;14.30;99.90;;;;;;5973363;24;20524;-77
2022/04/14 06:25:29;;;;;;;28.57;26.03;;;14.40;99.90;;;;;;5970280;23;20467;-77
2022/04/14 06:27:56;;;;;;;26.10;23.50;;;14.60;99.90;;;;;;5968880;24;20444;-76
2022/04/14 06:30:23;;;;;;;27.37;24.67;;;14.70;99.90;;;;;;5972619;23;20520;-76
2022/04/14 06:32:57;;;;;;;28.37;25.60;;;14.70;99.90;;;;;;5969966;23;20891;-74
2022/04/14 06:35:26;;;;;;;26.07;23.57;;;14.80;99.90;;;;;;5970189;23;20481;-76
2022/04/14 06:37:59;;;;;;;25.13;22.50;;;14.90;99.90;;;;;;5959866;23;20439;-76
2022/04/14 06:40:27;;;;;;;25.67;23.30;;;15.00;99.90;;;;;;5965439;24;20667;-76
2022/04/14 06:42:54;;;;;;;25.53;22.70;;;15.20;99.90;;;;;;5972021;24;20510;-76
2022/04/14 06:45:21;;;;;;;25.83;23.50;;;15.40;99.90;;;;;;5957660;23;20461;-77
2022/04/14 06:47:49;;;;;;;23.47;21.37;;;15.80;99.90;;;;;;5957153;23;20942;-75
2022/04/14 06:50:16;;;;;;;22.83;20.37;;;16.30;99.90;;;;;;5969918;23;20478;-76
2022/04/14 06:52:44;;;;;;;20.50;18.80;;;16.90;99.90;;;;;;5965483;23;20439;-76
2022/04/14 06:55:12;;;;;;;22.30;20.10;;;17.50;99.90;;;;;;5968696;23;20473;-76
2022/04/14 06:57:39;;;;;;;21.20;19.37;;;17.90;99.90;;;;;;5973221;23;20449;-77
2022/04/14 07:00:07;;;;;;;23.10;20.93;;;18.30;99.90;;;;;;5968544;23;20450;-76
2022/04/14 07:02:35;;;;;;;21.00;19.00;;;18.70;99.90;;;;;;5970795;23;20450;-76
2022/04/14 07:05:02;;;;;;;21.77;19.67;;;19.00;99.90;;;;;;5972927;24;20473;-77
2022/04/14 07:07:29;;;;;;;21.00;19.20;;;19.50;99.90;;;;;;5971273;23;20802;-76
2022/04/14 07:09:57;;;;;;;20.03;18.03;;;20.00;99.90;;;;;;5963678;23;20517;-77
2022/04/14 07:12:24;;;;;;;19.50;17.80;;;20.40;99.90;;;;;;5957865;23;20434;-77
2022/04/14 07:14:51;;;;;;;19.57;17.97;;;20.70;99.90;;;;;;5968197;23;20532;-76
2022/04/14 07:17:20;;;;;;;18.47;16.97;;;21.00;99.90;;;;;;5963311;23;20542;-77
2022/04/14 07:19:47;;;;;;;19.50;17.80;;;21.40;99.90;;;;;;5954239;23;20454;-77
2022/04/14 07:22:17;;;;;;;18.77;17.13;;;21.80;99.90;;;;;;5969105;23;20447;-77
2022/04/14 07:24:44;;;;;;;19.83;17.87;;;22.20;99.90;;;;;;5970163;24;20540;-78
2022/04/14 07:27:13;;;;;;;18.20;16.60;;;22.50;99.90;;;;;;5964519;23;20803;-76
2022/04/14 07:29:39;;;;;;;17.20;15.63;;;22.70;99.90;;;;;;5965542;23;20511;-77
2022/04/14 07:32:07;;;;;;;18.90;17.13;;;22.80;99.90;;;;;;5963688;24;20437;-78
2022/04/14 07:34:34;;;;;;;18.87;17.27;;;22.90;99.90;;;;;;5961361;23;21072;-77
2022/04/14 07:37:01;;;;;;;18.20;16.40;;;23.00;99.90;;;;;;5962619;23;20446;-77
2022/04/14 07:39:28;;;;;;;16.80;15.20;;;23.30;99.90;;;;;;5966622;23;20545;-77
2022/04/14 07:41:55;;;;;;;17.20;15.80;;;23.80;99.90;;;;;;5968904;23;20442;-77
2022/04/14 07:44:23;;;;;;;17.63;15.80;;;24.10;99.90;;;;;;5959966;23;20791;-76
2022/04/14 07:46:50;;;;;;;16.70;15.10;;;24.30;99.90;;;;;;5970239;23;20957;-76
2022/04/14 07:49:17;;;;;;;15.73;14.30;;;24.50;99.90;;;;;;5964450;24;20443;-75
2022/04/14 07:51:44;;;;;;;16.97;15.30;;;24.70;99.60;;;;;;5968154;23;20451;-84
2022/04/14 07:54:11;;;;;;;17.33;15.63;;;24.70;99.10;;;;;;5974163;24;20560;-77
2022/04/14 07:56:38;;;;;;;16.43;14.93;;;24.80;98.90;;;;;;5969470;24;20948;-77
2022/04/14 07:59:05;;;;;;;15.83;14.50;;;24.50;98.40;;;;;;5958716;24;20444;-77
2022/04/14 08:01:34;;;;;;;16.90;15.23;;;24.60;98.60;;;;;;5968594;23;20516;-77
2022/04/14 08:04:01;;;;;;;15.10;13.80;;;24.90;98.00;;;;;;5968627;24;21035;-77
2022/04/14 08:06:29;;;;;;;15.47;14.17;;;25.40;97.40;;;;;;5970753;23;20469;-79
2022/04/14 08:08:56;;;;;;;16.40;14.80;;;25.80;96.20;;;;;;5971716;23;20446;-77
2022/04/14 08:11:23;;;;;;;16.23;14.93;;;26.30;95.60;;;;;;5973607;24;20450;-77
2022/04/14 08:13:50;;;;;;;16.73;15.07;;;26.50;94.90;;;;;;5974925;24;20472;-77
2022/04/14 08:16:17;;;;;;;17.43;15.93;;;26.90;93.90;;;;;;5970699;23;20441;-77
2022/04/14 08:18:45;;;;;;;17.23;15.63;;;27.10;92.90;;;;;;5963689;23;20472;-77
2022/04/14 08:21:12;;;;;;;16.73;15.27;;;27.20;92.40;;;;;;5966233;23;20794;-77
2022/04/14 08:23:39;;;;;;;15.23;13.93;;;27.40;91.80;;;;;;5973953;24;21175;-77
2022/04/14 08:26:09;;;;;;;15.60;14.17;;;27.80;91.20;;;;;;5971472;23;20438;-77
2022/04/14 08:28:40;;;;;;;16.43;15.00;;;27.80;90.30;;;;;;5973550;24;20438;-77
2022/04/14 08:31:08;;;;;;;17.20;15.60;;;27.40;90.30;;;;;;5962607;24;20522;-77
2022/04/14 08:33:36;;;;;;;16.60;15.30;;;27.10;90.70;;;;;;5962120;23;20470;-77
2022/04/14 08:36:05;;;;;;;16.43;14.90;;;26.80;90.90;;;;;;5970753;24;20531;-77
2022/04/14 08:38:32;;;;;;;16.10;14.73;;;26.90;90.70;;;;;;5969764;23;20896;-77
2022/04/14 08:41:02;;;;;;;16.07;14.57;;;27.00;90.40;;;;;;5971752;24;20484;-77
2022/04/14 08:43:34;;;;;;;15.13;13.87;;;27.10;90.10;;;;;;5971857;23;20545;-77
2022/04/14 08:46:02;;;;;;;15.47;14.27;;;27.10;89.80;;;;;;5972397;24;21012;-77
2022/04/14 08:48:30;;;;;;;15.43;14.10;;;27.00;89.30;;;;;;5970156;24;20869;-77
2022/04/14 08:50:57;;;;;;;14.20;13.10;;;26.90;89.40;;;;;;5974667;24;20516;-77
2022/04/14 08:53:27;;;;;;;15.77;14.47;;;26.80;89.40;;;;;;5959792;23;20485;-77
2022/04/14 08:55:56;;;;;;;15.50;13.23;;;27.20;89.20;;;;;;5970369;24;20892;-77
2022/04/14 08:58:26;;;;;;;14.13;13.03;;;27.70;87.80;;;;;;5968483;23;20438;-77
2022/04/14 09:00:55;;;;;;;15.67;14.27;;;27.90;86.90;;;;;;5971676;23;20449;-77
2022/04/14 09:03:25;;;;;;;16.43;15.10;;;28.10;85.10;;;;;;5976789;24;20462;-78
2022/04/14 09:05:52;;;;;;;15.10;13.80;;;28.20;84.60;;;;;;5975489;24;20937;-77
2022/04/14 09:08:20;;;;;;;15.30;13.90;;;28.10;84.00;;;;;;5968038;23;20521;-77
2022/04/14 09:10:49;;;;;;;15.10;13.63;;;28.40;83.80;;;;;;5964675;23;20437;-77
2022/04/14 09:13:16;;;;;;;14.03;12.70;;;28.70;82.30;;;;;;5973652;23;20464;-77
2022/04/14 09:15:43;;;;;;;14.27;12.87;;;28.80;81.00;;;;;;5976186;23;20567;-77
2022/04/14 09:18:10;;;;;;;14.00;12.80;;;29.00;80.30;;;;;;5975753;24;20446;-77
2022/04/14 09:20:41;;;;;;;14.53;13.23;;;29.00;79.10;;;;;;5976056;24;21155;-77
2022/04/14 09:23:13;;;;;;;14.03;12.83;;;29.10;78.40;;;;;;5974766;24;20740;-77
2022/04/14 09:25:40;;;;;;;13.07;12.03;;;29.70;77.90;;;;;;5976006;24;20444;-76
2022/04/14 09:28:14;;;;;;;14.83;13.63;;;29.80;74.80;;;;;;5973528;23;20441;-77
2022/04/14 09:30:41;;;;;;;14.77;13.53;;;29.80;74.80;;;;;;5969708;23;20450;-78
2022/04/14 09:33:16;;;;;;;14.23;13.03;;;29.50;74.00;;;;;;5968699;24;20544;-76
2022/04/14 09:35:43;;;;;;;14.63;13.33;;;29.40;74.70;;;;;;5964056;23;20497;-77
2022/04/14 09:38:13;;;;;;;13.40;12.30;;;29.30;75.10;;;;;;5952057;23;20439;-77
2022/04/14 09:40:41;;;;;;;14.50;13.30;;;29.20;75.40;;;;;;5966950;24;20529;-77
2022/04/14 09:43:08;;;;;;;13.70;12.40;;;29.40;75.40;;;;;;5966273;23;21868;-77
2022/04/14 09:45:37;;;;;;;14.70;13.60;;;29.50;75.00;;;;;;5964023;23;20441;-77
2022/04/14 09:48:05;;;;;;;14.00;12.80;;;29.60;74.20;;;;;;5971262;23;20968;-77
2022/04/14 09:50:35;;;;;;;13.43;12.20;;;29.60;73.50;;;;;;5962892;23;20451;-83
2022/04/14 09:53:06;;;;;;;15.90;14.27;;;29.60;73.60;;;;;;5965364;24;20458;-77
2022/04/14 09:55:34;;;;;;;13.93;12.73;;;29.20;71.20;;;;;;5970835;23;20488;-77
2022/04/14 09:58:13;;;;;;;13.10;11.97;;;28.70;72.50;;;;;;5963282;23;20494;-76
2022/04/14 10:00:43;;;;;;;12.60;11.50;;;28.70;72.10;;;;;;5968971;24;20441;-76
2022/04/14 10:03:13;;;;;;;13.47;12.27;;;28.80;72.90;;;;;;5971880;23;20488;-77
2022/04/14 10:05:40;;;;;;;15.50;14.13;;;29.20;72.80;;;;;;5961087;23;20445;-77
2022/04/14 10:08:08;;;;;;;15.93;14.43;;;28.70;72.70;;;;;;5957163;23;20465;-76
2022/04/14 10:10:37;;;;;;;14.50;12.87;;;28.50;74.60;;;;;;5967687;24;20829;-77
2022/04/14 10:13:05;;;;;;;14.50;13.30;;;28.70;75.20;;;;;;5988880;23;20501;-82
2022/04/14 10:15:36;;;;;;;14.53;13.17;;;29.20;74.20;;;;;;5960853;23;21548;-78
2022/04/14 10:18:10;;;;;;;11.37;10.17;;;29.60;72.60;;;;;;5970200;23;20438;-74
2022/04/14 10:20:39;;;;;;;13.87;12.77;;;30.10;71.10;;;;;;5968362;23;20453;-74
2022/04/14 10:23:08;;;;;;;13.50;12.30;;;30.40;70.20;;;;;;5975191;24;20466;-74
2022/04/14 10:25:36;;;;;;;14.03;12.73;;;30.90;69.00;;;;;;5970690;23;20449;-73
2022/04/14 10:28:04;;;;;;;12.17;11.20;;;31.10;68.10;;;;;;5975488;24;20585;-74
2022/04/14 10:30:31;;;;;;;14.07;12.87;;;31.10;68.10;;;;;;5961292;23;20477;-75
2022/04/14 10:32:59;;;;;;;13.77;12.47;;;31.20;66.90;;;;;;5968636;23;20787;-75
2022/04/14 10:35:29;;;;;;;12.57;11.57;;;31.40;67.00;;;;;;5975595;24;20480;-75
2022/04/14 10:38:04;;;;;;;12.10;11.10;;;31.20;66.60;;;;;;5975417;23;20452;-75
2022/04/14 10:40:32;;;;;;;9.73;8.93;;;31.30;65.80;;;;;;5973871;23;20534;-75
2022/04/14 10:43:00;;;;;;;12.57;11.53;;;31.50;65.60;;;;;;5972643;23;20473;-72
2022/04/14 10:45:27;;;;;;;10.83;9.87;;;31.60;64.70;;;;;;5973592;23;20981;-73
2022/04/14 10:47:57;;;;;;;13.50;12.50;;;31.50;64.20;;;;;;5975092;23;20874;-74
2022/04/14 10:50:28;;;;;;;12.47;11.47;;;31.40;63.90;;;;;;5972263;23;20446;-74
2022/04/14 10:53:03;;;;;;;13.33;12.30;;;31.10;63.30;;;;;;5970728;23;20545;-74
2022/04/14 10:55:39;;;;;;;12.70;11.70;;;30.90;63.60;;;;;;5969926;23;20469;-74
2022/04/14 10:58:07;;;;;;;11.33;10.30;;;30.70;64.10;;;;;;5974366;23;20442;-74
2022/04/14 11:00:36;;;;;;;10.80;9.93;;;30.80;64.40;;;;;;5948961;23;20801;-74
2022/04/14 11:03:04;;;;;;;13.17;12.10;;;30.80;64.20;;;;;;5965552;23;20458;-74
2022/04/14 11:05:44;;;;;;;11.30;10.40;;;30.80;64.60;;;;;;5964995;23;20930;-74
2022/04/14 11:08:25;;;;;;;13.80;12.50;;;30.90;64.50;;;;;;5971632;23;20445;-74
2022/04/14 11:11:11;;;;;;;9.70;8.70;;;31.00;64.40;;;;;;5973978;23;21012;-74
2022/04/14 11:14:07;;;;;;;13.97;12.57;;;31.40;64.00;;;;;;5970173;23;20918;-74
2022/04/14 11:16:43;;;;;;;13.37;12.20;;;31.00;64.30;;;;;;5969469;23;20513;-74
2022/04/14 11:19:27;;;;;;;14.87;13.77;;;30.60;65.20;;;;;;5968284;23;20448;-74
2022/04/14 11:22:08;;;;;;;12.43;11.40;;;30.50;65.70;;;;;;5970924;23;20517;-74
2022/04/14 11:24:42;;;;;;;12.03;10.90;;;30.70;65.10;;;;;;5971914;23;20469;-75
2022/04/14 11:27:11;;;;;;;12.73;11.73;;;30.50;65.50;;;;;;5964547;23;20485;-74
2022/04/14 11:29:38;;;;;;;14.90;13.60;;;30.40;65.90;;;;;;5970905;23;20450;-75
2022/04/14 11:32:05;;;;;;;13.10;12.10;;;30.50;65.60;;;;;;5975081;23;20445;-73
2022/04/14 11:34:33;;;;;;;12.77;11.67;;;30.20;65.90;;;;;;5963147;23;20462;-74
2022/04/14 11:37:01;;;;;;;11.80;10.63;;;30.30;66.30;;;;;;5955115;23;20558;-75
2022/04/14 11:39:30;;;;;;;11.20;10.30;;;30.20;66.80;;;;;;5960540;23;20442;-78
2022/04/14 11:42:07;;;;;;;14.87;13.37;;;30.20;66.50;;;;;;5965806;23;20446;-74
2022/04/14 11:44:35;;;;;;;14.93;13.77;;;30.20;66.50;;;;;;5971870;23;20508;-74
2022/04/14 11:47:04;;;;;;;15.30;13.70;;;30.20;66.40;;;;;;5969632;23;20849;-74
2022/04/14 11:49:33;;;;;;;12.83;11.30;;;30.40;66.60;;;;;;5971279;23;20452;-75
2022/04/14 11:52:01;;;;;;;12.10;11.10;;;30.50;65.80;;;;;;5964742;23;21100;-75
2022/04/14 11:54:37;;;;;;;8.70;7.97;;;30.60;65.40;;;;;;5958614;23;20486;-75
2022/04/14 11:57:09;;;;;;;12.20;11.17;;;30.70;65.20;;;;;;5970729;23;21067;-73
2022/04/14 11:59:40;;;;;;;12.90;11.80;;;30.80;64.90;;;;;;5963209;23;20458;-74
2022/04/14 12:02:08;;;;;;;12.80;11.80;;;30.40;65.50;;;;;;5965504;23;20442;-74
2022/04/14 12:04:37;;;;;;;11.87;10.77;;;29.60;66.80;;;;;;5966100;23;20489;-75
2022/04/14 12:07:05;;;;;;;12.37;10.73;;;29.20;68.00;;;;;;5969705;23;20464;-74
2022/04/14 12:09:32;;;;;;;12.77;11.47;;;29.30;67.70;;;;;;5972484;23;20964;-74
2022/04/14 12:12:12;;;;;;;13.23;11.97;;;29.40;68.50;;;;;;5973312;23;20566;-74
2022/04/14 12:14:41;;;;;;;12.17;11.17;;;29.50;67.60;;;;;;5975434;24;20521;-75
2022/04/14 12:17:09;;;;;;;14.27;13.10;;;29.30;67.80;;;;;;5967610;23;20458;-75
2022/04/14 12:19:43;;;;;;;14.10;12.93;;;28.80;69.10;;;;;;5970214;23;20500;-74
2022/04/14 12:22:11;;;;;;;12.77;11.70;;;28.00;70.70;;;;;;5968018;23;20471;-74
2022/04/14 12:24:38;;;;;;;12.60;11.53;;;27.80;72.30;;;;;;5969979;23;20477;-75
2022/04/14 12:27:06;;;;;;;11.20;10.20;;;27.90;72.80;;;;;;5963412;23;20513;-74
2022/04/14 12:29:35;;;;;;;10.53;9.60;;;28.30;71.40;;;;;;5969732;23;20543;-77
2022/04/14 12:32:11;;;;;;;11.77;10.60;;;28.60;70.80;;;;;;5971329;23;20443;-75
2022/04/14 12:34:42;;;;;;;13.00;11.90;;;28.80;69.80;;;;;;5974463;23;20437;-74
2022/04/14 12:37:12;;;;;;;11.93;10.70;;;28.70;69.20;;;;;;5967349;23;20512;-74
2022/04/14 12:39:55;;;;;;;11.47;10.47;;;28.50;69.80;;;;;;5964813;23;20446;-74